Naomi, Kentucky
Current Conditions -  °F | °C
As of 3:15 AM on Tuesday 27 Jan 2015 (Local Time) from KSME Reporting Station
Overcast Overcast  
Wind Chill: 28°   Ceiling: 1100
Heat Index: 28°   Visibility: 7mi
Dew Point: 28°   Wind: 3mph
Humidity: 100%   Direction: 250°WSW
Pressure: 29.9"   Gusts: NA
Location:  37.0701°N, 84.793°W
Report Text: KSME 270815Z AUTO 25003KT 7SM OVC011 M02/M02 A2990 RMK AO2
Loading
Personal Weather Stations






























Interactive Weather Map New forecast layout! Learn more

10-Day Weather Forecast

Advertisements
Track Severe Weather on mobile